sensor_id;sensor_type;location;lat;lon;timestamp;P1;durP1;ratioP1;P2;durP2;ratioP2
66380;SDS011;53177;52.648;1.214;2022-09-20T00:01:02;8.10;;;2.80;;
66380;SDS011;53177;52.648;1.214;2022-09-20T00:03:36;6.47;;;2.80;;
66380;SDS011;53177;52.648;1.214;2022-09-20T00:06:04;6.80;;;2.70;;
66380;SDS011;53177;52.648;1.214;2022-09-20T00:08:31;9.45;;;2.83;;
66380;SDS011;53177;52.648;1.214;2022-09-20T00:11:00;6.73;;;2.77;;
66380;SDS011;53177;52.648;1.214;2022-09-20T00:13:30;9.30;;;2.60;;
66380;SDS011;53177;52.648;1.214;2022-09-20T00:15:57;7.35;;;2.80;;
66380;SDS011;53177;52.648;1.214;2022-09-20T00:18:22;7.00;;;2.63;;
66380;SDS011;53177;52.648;1.214;2022-09-20T00:20:48;8.70;;;2.83;;
66380;SDS011;53177;52.648;1.214;2022-09-20T00:23:14;6.47;;;2.40;;
66380;SDS011;53177;52.648;1.214;2022-09-20T00:25:41;6.07;;;2.70;;
66380;SDS011;53177;52.648;1.214;2022-09-20T00:28:07;6.30;;;2.45;;
66380;SDS011;53177;52.648;1.214;2022-09-20T00:30:33;7.82;;;2.80;;
66380;SDS011;53177;52.648;1.214;2022-09-20T00:32:59;7.53;;;2.38;;
66380;SDS011;53177;52.648;1.214;2022-09-20T00:35:25;5.77;;;2.33;;
66380;SDS011;53177;52.648;1.214;2022-09-20T00:37:50;7.40;;;2.40;;
66380;SDS011;53177;52.648;1.214;2022-09-20T00:40:17;7.63;;;2.37;;
66380;SDS011;53177;52.648;1.214;2022-09-20T00:42:45;5.55;;;2.30;;
66380;SDS011;53177;52.648;1.214;2022-09-20T00:45:21;5.82;;;2.33;;
66380;SDS011;53177;52.648;1.214;2022-09-20T00:47:49;5.78;;;1.90;;
66380;SDS011;53177;52.648;1.214;2022-09-20T00:50:25;7.25;;;2.20;;
66380;SDS011;53177;52.648;1.214;2022-09-20T00:53:09;7.90;;;2.47;;
66380;SDS011;53177;52.648;1.214;2022-09-20T00:55:37;8.05;;;2.67;;
66380;SDS011;53177;52.648;1.214;2022-09-20T00:58:06;7.15;;;2.20;;
66380;SDS011;53177;52.648;1.214;2022-09-20T01:00:33;6.18;;;2.45;;
66380;SDS011;53177;52.648;1.214;2022-09-20T01:03:00;8.17;;;2.40;;
66380;SDS011;53177;52.648;1.214;2022-09-20T01:05:31;8.20;;;2.80;;
66380;SDS011;53177;52.648;1.214;2022-09-20T01:07:58;7.78;;;2.40;;
66380;SDS011;53177;52.648;1.214;2022-09-20T01:10:24;6.13;;;2.33;;
66380;SDS011;53177;52.648;1.214;2022-09-20T01:12:50;8.50;;;2.58;;
66380;SDS011;53177;52.648;1.214;2022-09-20T01:15:17;7.63;;;2.40;;
66380;SDS011;53177;52.648;1.214;2022-09-20T01:17:45;7.10;;;2.53;;
66380;SDS011;53177;52.648;1.214;2022-09-20T01:20:21;5.68;;;2.30;;
66380;SDS011;53177;52.648;1.214;2022-09-20T01:28:35;7.17;;;2.13;;
66380;SDS011;53177;52.648;1.214;2022-09-20T01:31:07;5.75;;;2.20;;
66380;SDS011;53177;52.648;1.214;2022-09-20T01:36:17;6.13;;;2.13;;
66380;SDS011;53177;52.648;1.214;2022-09-20T01:39:22;5.25;;;1.95;;
66380;SDS011;53177;52.648;1.214;2022-09-20T01:47:24;6.82;;;2.10;;
66380;SDS011;53177;52.648;1.214;2022-09-20T01:50:11;6.00;;;2.00;;
66380;SDS011;53177;52.648;1.214;2022-09-20T01:53:00;6.80;;;2.30;;
66380;SDS011;53177;52.648;1.214;2022-09-20T02:17:37;6.47;;;2.00;;
66380;SDS011;53177;52.648;1.214;2022-09-20T02:20:37;6.47;;;2.10;;
66380;SDS011;53177;52.648;1.214;2022-09-20T02:23:11;4.90;;;1.80;;
66380;SDS011;53177;52.648;1.214;2022-09-20T02:25:56;5.95;;;1.90;;
66380;SDS011;53177;52.648;1.214;2022-09-20T02:39:32;4.53;;;1.63;;
66380;SDS011;53177;52.648;1.214;2022-09-20T02:45:03;5.22;;;1.52;;
66380;SDS011;53177;52.648;1.214;2022-09-20T02:47:44;7.85;;;1.67;;
66380;SDS011;53177;52.648;1.214;2022-09-20T02:52:59;5.28;;;1.40;;
66380;SDS011;53177;52.648;1.214;2022-09-20T03:04:05;6.80;;;2.03;;
66380;SDS011;53177;52.648;1.214;2022-09-20T03:12:29;7.93;;;1.63;;
66380;SDS011;53177;52.648;1.214;2022-09-20T03:15:19;5.50;;;1.60;;
66380;SDS011;53177;52.648;1.214;2022-09-20T03:18:01;5.77;;;1.60;;
66380;SDS011;53177;52.648;1.214;2022-09-20T03:20:43;4.75;;;1.40;;
66380;SDS011;53177;52.648;1.214;2022-09-20T03:42:50;6.85;;;1.80;;
66380;SDS011;53177;52.648;1.214;2022-09-20T03:45:22;7.70;;;1.77;;
66380;SDS011;53177;52.648;1.214;2022-09-20T03:50:41;4.17;;;1.27;;
66380;SDS011;53177;52.648;1.214;2022-09-20T03:55:50;6.38;;;1.50;;
66380;SDS011;53177;52.648;1.214;2022-09-20T04:01:08;6.15;;;1.35;;
66380;SDS011;53177;52.648;1.214;2022-09-20T04:04:11;5.03;;;1.50;;
66380;SDS011;53177;52.648;1.214;2022-09-20T04:06:51;4.53;;;1.35;;
66380;SDS011;53177;52.648;1.214;2022-09-20T04:12:49;4.88;;;1.27;;
66380;SDS011;53177;52.648;1.214;2022-09-20T04:19:00;3.95;;;1.30;;
66380;SDS011;53177;52.648;1.214;2022-09-20T04:21:33;7.78;;;1.35;;
66380;SDS011;53177;52.648;1.214;2022-09-20T04:26:54;5.40;;;1.30;;
66380;SDS011;53177;52.648;1.214;2022-09-20T04:29:30;5.50;;;1.40;;
66380;SDS011;53177;52.648;1.214;2022-09-20T04:34:46;3.75;;;1.45;;
66380;SDS011;53177;52.648;1.214;2022-09-20T04:37:38;4.78;;;1.20;;
66380;SDS011;53177;52.648;1.214;2022-09-20T04:40:12;4.40;;;1.45;;
66380;SDS011;53177;52.648;1.214;2022-09-20T04:54:17;7.13;;;1.70;;
66380;SDS011;53177;52.648;1.214;2022-09-20T04:57:07;4.67;;;1.43;;
66380;SDS011;53177;52.648;1.214;2022-09-20T05:02:48;4.75;;;1.70;;
66380;SDS011;53177;52.648;1.214;2022-09-20T05:05:38;5.20;;;1.52;;
66380;SDS011;53177;52.648;1.214;2022-09-20T05:08:32;5.82;;;1.60;;
66380;SDS011;53177;52.648;1.214;2022-09-20T05:22:30;6.13;;;1.35;;
66380;SDS011;53177;52.648;1.214;2022-09-20T05:33:54;5.45;;;1.60;;
66380;SDS011;53177;52.648;1.214;2022-09-20T05:37:10;4.75;;;1.55;;
66380;SDS011;53177;52.648;1.214;2022-09-20T05:39:52;6.10;;;1.93;;
66380;SDS011;53177;52.648;1.214;2022-09-20T05:42:33;5.60;;;1.85;;
66380;SDS011;53177;52.648;1.214;2022-09-20T05:45:15;7.07;;;2.00;;
66380;SDS011;53177;52.648;1.214;2022-09-20T05:50:59;5.82;;;1.75;;
66380;SDS011;53177;52.648;1.214;2022-09-20T05:53:49;5.20;;;1.63;;
66380;SDS011;53177;52.648;1.214;2022-09-20T05:56:39;5.97;;;1.80;;
66380;SDS011;53177;52.648;1.214;2022-09-20T06:02:01;4.78;;;1.60;;
66380;SDS011;53177;52.648;1.214;2022-09-20T06:04:50;6.30;;;1.60;;
66380;SDS011;53177;52.648;1.214;2022-09-20T06:22:04;7.53;;;1.90;;
66380;SDS011;53177;52.648;1.214;2022-09-20T06:27:32;6.32;;;2.50;;
66380;SDS011;53177;52.648;1.214;2022-09-20T06:30:04;9.80;;;2.30;;
66380;SDS011;53177;52.648;1.214;2022-09-20T06:32:58;7.28;;;2.00;;
66380;SDS011;53177;52.648;1.214;2022-09-20T06:36:08;7.63;;;1.83;;
66380;SDS011;53177;52.648;1.214;2022-09-20T06:41:52;8.18;;;2.40;;
66380;SDS011;53177;52.648;1.214;2022-09-20T06:44:18;6.85;;;2.10;;
66380;SDS011;53177;52.648;1.214;2022-09-20T06:46:43;8.93;;;2.30;;
66380;SDS011;53177;52.648;1.214;2022-09-20T06:49:08;14.33;;;3.80;;
66380;SDS011;53177;52.648;1.214;2022-09-20T06:51:35;37.63;;;16.00;;
66380;SDS011;53177;52.648;1.214;2022-09-20T06:54:03;22.13;;;5.97;;
66380;SDS011;53177;52.648;1.214;2022-09-20T06:56:31;34.25;;;7.57;;
66380;SDS011;53177;52.648;1.214;2022-09-20T06:59:00;26.45;;;6.55;;
66380;SDS011;53177;52.648;1.214;2022-09-20T07:01:25;40.40;;;9.77;;
66380;SDS011;53177;52.648;1.214;2022-09-20T07:03:51;18.83;;;5.47;;
66380;SDS011;53177;52.648;1.214;2022-09-20T07:06:16;30.33;;;5.70;;
66380;SDS011;53177;52.648;1.214;2022-09-20T07:08:44;18.48;;;3.63;;
66380;SDS011;53177;52.648;1.214;2022-09-20T07:11:11;11.27;;;3.25;;
66380;SDS011;53177;52.648;1.214;2022-09-20T07:13:39;10.15;;;2.80;;
66380;SDS011;53177;52.648;1.214;2022-09-20T07:16:06;17.00;;;4.28;;
66380;SDS011;53177;52.648;1.214;2022-09-20T07:18:32;11.00;;;3.20;;
66380;SDS011;53177;52.648;1.214;2022-09-20T07:20:59;10.05;;;2.65;;
66380;SDS011;53177;52.648;1.214;2022-09-20T07:23:27;10.20;;;2.20;;
66380;SDS011;53177;52.648;1.214;2022-09-20T07:25:56;13.65;;;3.42;;
66380;SDS011;53177;52.648;1.214;2022-09-20T07:28:24;10.15;;;2.30;;
66380;SDS011;53177;52.648;1.214;2022-09-20T07:30:54;8.50;;;2.28;;
66380;SDS011;53177;52.648;1.214;2022-09-20T07:33:19;5.83;;;1.70;;
66380;SDS011;53177;52.648;1.214;2022-09-20T07:35:46;7.45;;;2.00;;
66380;SDS011;53177;52.648;1.214;2022-09-20T07:38:12;8.57;;;1.98;;
66380;SDS011;53177;52.648;1.214;2022-09-20T07:40:39;8.73;;;1.90;;
66380;SDS011;53177;52.648;1.214;2022-09-20T07:43:04;7.00;;;1.92;;
66380;SDS011;53177;52.648;1.214;2022-09-20T07:45:30;7.47;;;2.00;;
66380;SDS011;53177;52.648;1.214;2022-09-20T07:47:56;7.97;;;2.03;;
66380;SDS011;53177;52.648;1.214;2022-09-20T07:50:23;5.45;;;1.92;;
66380;SDS011;53177;52.648;1.214;2022-09-20T07:52:49;6.68;;;2.10;;
66380;SDS011;53177;52.648;1.214;2022-09-20T07:55:14;7.03;;;2.10;;
66380;SDS011;53177;52.648;1.214;2022-09-20T07:57:40;8.75;;;2.55;;
66380;SDS011;53177;52.648;1.214;2022-09-20T08:00:07;7.68;;;2.70;;
66380;SDS011;53177;52.648;1.214;2022-09-20T08:02:33;6.38;;;2.10;;
66380;SDS011;53177;52.648;1.214;2022-09-20T08:04:59;8.20;;;2.70;;
66380;SDS011;53177;52.648;1.214;2022-09-20T08:07:25;12.07;;;2.97;;
66380;SDS011;53177;52.648;1.214;2022-09-20T08:09:50;7.47;;;2.70;;
66380;SDS011;53177;52.648;1.214;2022-09-20T08:12:15;11.07;;;2.90;;
66380;SDS011;53177;52.648;1.214;2022-09-20T08:14:43;8.45;;;2.80;;
66380;SDS011;53177;52.648;1.214;2022-09-20T08:17:09;8.48;;;2.97;;
66380;SDS011;53177;52.648;1.214;2022-09-20T08:19:35;9.63;;;2.63;;
66380;SDS011;53177;52.648;1.214;2022-09-20T08:22:03;12.70;;;4.32;;
66380;SDS011;53177;52.648;1.214;2022-09-20T08:24:29;12.65;;;3.72;;
66380;SDS011;53177;52.648;1.214;2022-09-20T08:26:54;10.43;;;3.50;;
66380;SDS011;53177;52.648;1.214;2022-09-20T08:29:20;11.07;;;3.83;;
66380;SDS011;53177;52.648;1.214;2022-09-20T08:31:45;7.20;;;3.03;;
66380;SDS011;53177;52.648;1.214;2022-09-20T08:34:12;8.48;;;3.25;;
66380;SDS011;53177;52.648;1.214;2022-09-20T08:36:40;10.23;;;3.83;;
66380;SDS011;53177;52.648;1.214;2022-09-20T08:39:10;8.18;;;4.00;;
66380;SDS011;53177;52.648;1.214;2022-09-20T08:41:38;11.50;;;4.03;;
66380;SDS011;53177;52.648;1.214;2022-09-20T08:44:25;9.85;;;3.80;;
66380;SDS011;53177;52.648;1.214;2022-09-20T08:49:33;8.80;;;3.60;;
66380;SDS011;53177;52.648;1.214;2022-09-20T08:52:00;12.18;;;4.28;;
66380;SDS011;53177;52.648;1.214;2022-09-20T08:54:28;11.90;;;4.60;;
66380;SDS011;53177;52.648;1.214;2022-09-20T08:56:57;11.23;;;4.85;;
66380;SDS011;53177;52.648;1.214;2022-09-20T08:59:29;12.88;;;4.57;;
66380;SDS011;53177;52.648;1.214;2022-09-20T09:01:55;14.00;;;4.50;;
66380;SDS011;53177;52.648;1.214;2022-09-20T09:04:23;12.25;;;4.80;;
66380;SDS011;53177;52.648;1.214;2022-09-20T09:06:55;10.40;;;4.53;;
66380;SDS011;53177;52.648;1.214;2022-09-20T09:09:22;8.10;;;4.20;;
66380;SDS011;53177;52.648;1.214;2022-09-20T09:11:52;10.23;;;4.30;;
66380;SDS011;53177;52.648;1.214;2022-09-20T09:14:29;10.95;;;4.18;;
66380;SDS011;53177;52.648;1.214;2022-09-20T09:17:18;10.90;;;5.03;;
66380;SDS011;53177;52.648;1.214;2022-09-20T09:19:46;9.80;;;4.60;;
66380;SDS011;53177;52.648;1.214;2022-09-20T09:25:12;10.00;;;4.60;;
66380;SDS011;53177;52.648;1.214;2022-09-20T09:30:28;9.47;;;3.93;;
66380;SDS011;53177;52.648;1.214;2022-09-20T09:35:44;9.27;;;4.18;;
66380;SDS011;53177;52.648;1.214;2022-09-20T09:38:29;9.32;;;3.83;;
66380;SDS011;53177;52.648;1.214;2022-09-20T09:41:04;9.00;;;3.70;;
66380;SDS011;53177;52.648;1.214;2022-09-20T09:43:56;10.30;;;3.23;;
66380;SDS011;53177;52.648;1.214;2022-09-20T09:46:31;7.38;;;3.10;;
66380;SDS011;53177;52.648;1.214;2022-09-20T09:54:40;6.22;;;2.58;;
66380;SDS011;53177;52.648;1.214;2022-09-20T10:00:19;6.60;;;2.65;;
66380;SDS011;53177;52.648;1.214;2022-09-20T10:03:03;6.90;;;2.53;;
66380;SDS011;53177;52.648;1.214;2022-09-20T10:06:01;7.40;;;2.40;;
66380;SDS011;53177;52.648;1.214;2022-09-20T10:08:40;6.57;;;2.60;;
66380;SDS011;53177;52.648;1.214;2022-09-20T10:14:14;9.02;;;2.38;;
66380;SDS011;53177;52.648;1.214;2022-09-20T10:17:20;9.98;;;2.58;;
66380;SDS011;53177;52.648;1.214;2022-09-20T10:19:52;8.18;;;2.90;;
66380;SDS011;53177;52.648;1.214;2022-09-20T10:25:14;7.47;;;3.60;;
66380;SDS011;53177;52.648;1.214;2022-09-20T10:31:05;5.15;;;2.03;;
66380;SDS011;53177;52.648;1.214;2022-09-20T10:33:51;6.57;;;2.83;;
66380;SDS011;53177;52.648;1.214;2022-09-20T10:36:46;6.55;;;2.25;;
66380;SDS011;53177;52.648;1.214;2022-09-20T10:39:23;6.03;;;2.70;;
66380;SDS011;53177;52.648;1.214;2022-09-20T10:41:58;5.65;;;2.20;;
66380;SDS011;53177;52.648;1.214;2022-09-20T10:51:03;7.57;;;2.20;;
66380;SDS011;53177;52.648;1.214;2022-09-20T11:01:46;5.55;;;2.20;;
66380;SDS011;53177;52.648;1.214;2022-09-20T11:04:19;8.93;;;3.00;;
66380;SDS011;53177;52.648;1.214;2022-09-20T11:09:48;6.88;;;3.47;;
66380;SDS011;53177;52.648;1.214;2022-09-20T11:12:26;5.53;;;2.40;;
66380;SDS011;53177;52.648;1.214;2022-09-20T11:15:01;5.65;;;2.10;;
66380;SDS011;53177;52.648;1.214;2022-09-20T11:17:31;5.20;;;2.00;;
66380;SDS011;53177;52.648;1.214;2022-09-20T11:20:20;4.63;;;1.90;;
66380;SDS011;53177;52.648;1.214;2022-09-20T11:22:51;5.57;;;1.83;;
66380;SDS011;53177;52.648;1.214;2022-09-20T11:25:37;4.32;;;1.80;;
66380;SDS011;53177;52.648;1.214;2022-09-20T11:33:27;5.37;;;1.73;;
66380;SDS011;53177;52.648;1.214;2022-09-20T11:35:58;4.80;;;2.00;;
66380;SDS011;53177;52.648;1.214;2022-09-20T11:38:38;5.10;;;2.45;;
66380;SDS011;53177;52.648;1.214;2022-09-20T11:43:43;4.93;;;2.20;;
66380;SDS011;53177;52.648;1.214;2022-09-20T11:46:17;6.43;;;2.13;;
66380;SDS011;53177;52.648;1.214;2022-09-20T11:48:50;6.43;;;2.00;;
66380;SDS011;53177;52.648;1.214;2022-09-20T11:56:28;5.25;;;2.25;;
66380;SDS011;53177;52.648;1.214;2022-09-20T11:59:02;6.13;;;2.30;;
66380;SDS011;53177;52.648;1.214;2022-09-20T12:01:35;4.88;;;2.10;;
66380;SDS011;53177;52.648;1.214;2022-09-20T12:04:17;5.22;;;2.00;;
66380;SDS011;53177;52.648;1.214;2022-09-20T12:06:54;6.30;;;2.10;;
66380;SDS011;53177;52.648;1.214;2022-09-20T12:09:24;4.60;;;1.90;;
66380;SDS011;53177;52.648;1.214;2022-09-20T12:11:53;4.70;;;2.07;;
66380;SDS011;53177;52.648;1.214;2022-09-20T12:14:23;5.32;;;2.03;;
66380;SDS011;53177;52.648;1.214;2022-09-20T12:16:51;5.80;;;2.20;;
66380;SDS011;53177;52.648;1.214;2022-09-20T12:24:29;5.90;;;2.27;;
66380;SDS011;53177;52.648;1.214;2022-09-20T12:27:00;6.60;;;2.20;;
66380;SDS011;53177;52.648;1.214;2022-09-20T12:29:51;5.40;;;2.73;;
66380;SDS011;53177;52.648;1.214;2022-09-20T12:34:56;5.10;;;2.30;;
66380;SDS011;53177;52.648;1.214;2022-09-20T12:37:22;5.37;;;2.40;;
66380;SDS011;53177;52.648;1.214;2022-09-20T12:39:51;6.40;;;2.75;;
66380;SDS011;53177;52.648;1.214;2022-09-20T12:45:00;5.60;;;2.40;;
66380;SDS011;53177;52.648;1.214;2022-09-20T12:47:32;5.90;;;2.65;;
66380;SDS011;53177;52.648;1.214;2022-09-20T12:49:59;5.70;;;2.80;;
66380;SDS011;53177;52.648;1.214;2022-09-20T13:05:48;5.40;;;2.60;;
66380;SDS011;53177;52.648;1.214;2022-09-20T13:09:03;6.03;;;3.10;;
66380;SDS011;53177;52.648;1.214;2022-09-20T13:19:04;6.05;;;2.83;;
66380;SDS011;53177;52.648;1.214;2022-09-20T13:24:26;4.85;;;1.90;;
66380;SDS011;53177;52.648;1.214;2022-09-20T13:26:59;4.40;;;2.03;;
66380;SDS011;53177;52.648;1.214;2022-09-20T13:29:38;6.20;;;2.10;;
66380;SDS011;53177;52.648;1.214;2022-09-20T13:32:21;5.90;;;2.08;;
66380;SDS011;53177;52.648;1.214;2022-09-20T13:37:54;5.30;;;2.40;;
66380;SDS011;53177;52.648;1.214;2022-09-20T13:42:49;5.73;;;2.50;;
66380;SDS011;53177;52.648;1.214;2022-09-20T13:45:17;8.73;;;3.00;;
66380;SDS011;53177;52.648;1.214;2022-09-20T13:47:48;8.27;;;3.05;;
66380;SDS011;53177;52.648;1.214;2022-09-20T13:50:31;6.35;;;2.75;;
66380;SDS011;53177;52.648;1.214;2022-09-20T13:53:12;5.78;;;2.85;;
66380;SDS011;53177;52.648;1.214;2022-09-20T13:55:42;6.50;;;3.00;;
66380;SDS011;53177;52.648;1.214;2022-09-20T13:58:16;6.55;;;2.78;;
66380;SDS011;53177;52.648;1.214;2022-09-20T14:00:48;5.63;;;2.70;;
66380;SDS011;53177;52.648;1.214;2022-09-20T14:03:17;5.55;;;2.80;;
66380;SDS011;53177;52.648;1.214;2022-09-20T14:05:47;6.68;;;2.83;;
66380;SDS011;53177;52.648;1.214;2022-09-20T14:08:20;8.50;;;2.60;;
66380;SDS011;53177;52.648;1.214;2022-09-20T14:10:49;5.30;;;2.60;;
66380;SDS011;53177;52.648;1.214;2022-09-20T14:13:29;5.88;;;2.70;;
66380;SDS011;53177;52.648;1.214;2022-09-20T14:16:00;6.97;;;2.90;;
66380;SDS011;53177;52.648;1.214;2022-09-20T14:18:26;6.70;;;3.17;;
66380;SDS011;53177;52.648;1.214;2022-09-20T14:20:51;6.25;;;3.10;;
66380;SDS011;53177;52.648;1.214;2022-09-20T14:23:20;6.45;;;2.92;;
66380;SDS011;53177;52.648;1.214;2022-09-20T14:26:07;7.00;;;3.40;;
66380;SDS011;53177;52.648;1.214;2022-09-20T14:28:53;6.50;;;3.38;;
66380;SDS011;53177;52.648;1.214;2022-09-20T14:31:26;6.72;;;3.10;;
66380;SDS011;53177;52.648;1.214;2022-09-20T14:33:59;8.27;;;3.10;;
66380;SDS011;53177;52.648;1.214;2022-09-20T14:36:27;6.53;;;3.23;;
66380;SDS011;53177;52.648;1.214;2022-09-20T14:38:54;8.02;;;3.45;;
66380;SDS011;53177;52.648;1.214;2022-09-20T14:41:26;8.25;;;3.60;;
66380;SDS011;53177;52.648;1.214;2022-09-20T14:44:00;6.65;;;2.58;;
66380;SDS011;53177;52.648;1.214;2022-09-20T14:46:33;5.80;;;2.20;;
66380;SDS011;53177;52.648;1.214;2022-09-20T14:51:50;5.47;;;2.00;;
66380;SDS011;53177;52.648;1.214;2022-09-20T14:56:51;6.88;;;2.50;;
66380;SDS011;53177;52.648;1.214;2022-09-20T15:02:02;4.97;;;2.08;;
66380;SDS011;53177;52.648;1.214;2022-09-20T15:04:36;8.98;;;2.40;;
66380;SDS011;53177;52.648;1.214;2022-09-20T15:07:04;7.00;;;2.05;;
66380;SDS011;53177;52.648;1.214;2022-09-20T15:09:31;7.28;;;5.55;;
66380;SDS011;53177;52.648;1.214;2022-09-20T15:12:14;6.30;;;2.20;;
66380;SDS011;53177;52.648;1.214;2022-09-20T15:14:41;7.43;;;2.33;;
66380;SDS011;53177;52.648;1.214;2022-09-20T15:17:16;6.50;;;2.20;;
66380;SDS011;53177;52.648;1.214;2022-09-20T15:19:44;5.30;;;2.25;;
66380;SDS011;53177;52.648;1.214;2022-09-20T15:22:10;5.80;;;2.80;;
66380;SDS011;53177;52.648;1.214;2022-09-20T15:24:36;6.03;;;2.73;;
66380;SDS011;53177;52.648;1.214;2022-09-20T15:27:02;7.07;;;2.67;;
66380;SDS011;53177;52.648;1.214;2022-09-20T15:29:28;6.82;;;2.60;;
66380;SDS011;53177;52.648;1.214;2022-09-20T15:31:53;6.95;;;2.65;;
66380;SDS011;53177;52.648;1.214;2022-09-20T15:34:19;6.20;;;2.47;;
66380;SDS011;53177;52.648;1.214;2022-09-20T15:36:44;7.47;;;2.60;;
66380;SDS011;53177;52.648;1.214;2022-09-20T15:39:10;6.57;;;2.87;;
66380;SDS011;53177;52.648;1.214;2022-09-20T15:41:35;9.25;;;5.68;;
66380;SDS011;53177;52.648;1.214;2022-09-20T15:44:02;11.07;;;4.37;;
66380;SDS011;53177;52.648;1.214;2022-09-20T15:46:28;14.13;;;5.97;;
66380;SDS011;53177;52.648;1.214;2022-09-20T15:48:55;18.38;;;7.25;;
66380;SDS011;53177;52.648;1.214;2022-09-20T15:51:20;16.67;;;6.00;;
66380;SDS011;53177;52.648;1.214;2022-09-20T15:53:47;25.70;;;7.30;;
66380;SDS011;53177;52.648;1.214;2022-09-20T15:56:29;41.53;;;9.05;;
66380;SDS011;53177;52.648;1.214;2022-09-20T15:58:56;18.07;;;5.13;;
66380;SDS011;53177;52.648;1.214;2022-09-20T16:01:28;34.00;;;13.40;;
66380;SDS011;53177;52.648;1.214;2022-09-20T16:03:56;11.68;;;4.25;;
66380;SDS011;53177;52.648;1.214;2022-09-20T16:06:22;11.50;;;4.07;;
66380;SDS011;53177;52.648;1.214;2022-09-20T16:08:49;18.77;;;6.78;;
66380;SDS011;53177;52.648;1.214;2022-09-20T16:11:15;9.67;;;4.70;;
66380;SDS011;53177;52.648;1.214;2022-09-20T16:13:44;13.70;;;5.15;;
66380;SDS011;53177;52.648;1.214;2022-09-20T16:16:16;17.70;;;6.53;;
66380;SDS011;53177;52.648;1.214;2022-09-20T16:18:42;10.50;;;4.97;;
66380;SDS011;53177;52.648;1.214;2022-09-20T16:21:26;25.02;;;8.45;;
66380;SDS011;53177;52.648;1.214;2022-09-20T16:23:52;18.53;;;6.60;;
66380;SDS011;53177;52.648;1.214;2022-09-20T16:26:19;9.48;;;4.70;;
66380;SDS011;53177;52.648;1.214;2022-09-20T16:28:46;10.73;;;4.80;;
66380;SDS011;53177;52.648;1.214;2022-09-20T16:34:02;8.40;;;4.50;;
66380;SDS011;53177;52.648;1.214;2022-09-20T16:36:29;10.45;;;4.90;;
66380;SDS011;53177;52.648;1.214;2022-09-20T16:38:56;9.68;;;4.97;;
66380;SDS011;53177;52.648;1.214;2022-09-20T16:41:22;8.05;;;4.22;;
66380;SDS011;53177;52.648;1.214;2022-09-20T16:43:49;10.05;;;4.13;;
66380;SDS011;53177;52.648;1.214;2022-09-20T16:46:16;9.67;;;4.20;;
66380;SDS011;53177;52.648;1.214;2022-09-20T16:48:46;7.72;;;3.80;;
66380;SDS011;53177;52.648;1.214;2022-09-20T16:51:13;8.93;;;3.85;;
66380;SDS011;53177;52.648;1.214;2022-09-20T16:53:40;9.13;;;3.70;;
66380;SDS011;53177;52.648;1.214;2022-09-20T16:56:06;7.65;;;3.83;;
66380;SDS011;53177;52.648;1.214;2022-09-20T16:58:31;5.83;;;3.10;;
66380;SDS011;53177;52.648;1.214;2022-09-20T17:01:02;6.90;;;3.78;;
66380;SDS011;53177;52.648;1.214;2022-09-20T17:03:29;8.55;;;4.05;;
66380;SDS011;53177;52.648;1.214;2022-09-20T17:06:04;8.13;;;3.63;;
66380;SDS011;53177;52.648;1.214;2022-09-20T17:08:32;6.77;;;3.33;;
66380;SDS011;53177;52.648;1.214;2022-09-20T17:11:02;10.98;;;3.80;;
66380;SDS011;53177;52.648;1.214;2022-09-20T17:13:29;9.02;;;3.67;;
66380;SDS011;53177;52.648;1.214;2022-09-20T17:16:08;12.55;;;3.60;;
66380;SDS011;53177;52.648;1.214;2022-09-20T17:18:37;10.52;;;4.20;;
66380;SDS011;53177;52.648;1.214;2022-09-20T17:21:14;7.80;;;3.90;;
66380;SDS011;53177;52.648;1.214;2022-09-20T17:23:41;6.80;;;3.45;;
66380;SDS011;53177;52.648;1.214;2022-09-20T17:26:12;8.73;;;3.67;;
66380;SDS011;53177;52.648;1.214;2022-09-20T17:28:43;9.68;;;3.83;;
66380;SDS011;53177;52.648;1.214;2022-09-20T17:31:12;10.57;;;4.43;;
66380;SDS011;53177;52.648;1.214;2022-09-20T17:33:39;10.17;;;3.90;;
66380;SDS011;53177;52.648;1.214;2022-09-20T17:36:04;9.38;;;4.05;;
66380;SDS011;53177;52.648;1.214;2022-09-20T17:38:31;8.33;;;3.73;;
66380;SDS011;53177;52.648;1.214;2022-09-20T17:41:04;9.48;;;4.13;;
66380;SDS011;53177;52.648;1.214;2022-09-20T17:43:35;8.93;;;3.90;;
66380;SDS011;53177;52.648;1.214;2022-09-20T17:48:40;10.48;;;4.07;;
66380;SDS011;53177;52.648;1.214;2022-09-20T17:51:13;8.83;;;3.80;;
66380;SDS011;53177;52.648;1.214;2022-09-20T17:53:40;10.32;;;3.80;;
66380;SDS011;53177;52.648;1.214;2022-09-20T17:56:06;10.48;;;4.40;;
66380;SDS011;53177;52.648;1.214;2022-09-20T17:58:32;9.83;;;3.90;;
66380;SDS011;53177;52.648;1.214;2022-09-20T18:01:17;8.23;;;3.83;;
66380;SDS011;53177;52.648;1.214;2022-09-20T18:03:44;9.25;;;3.55;;
66380;SDS011;53177;52.648;1.214;2022-09-20T18:08:53;8.40;;;3.90;;
66380;SDS011;53177;52.648;1.214;2022-09-20T18:11:32;8.23;;;3.70;;
66380;SDS011;53177;52.648;1.214;2022-09-20T18:14:02;9.93;;;4.15;;
66380;SDS011;53177;52.648;1.214;2022-09-20T18:16:29;14.07;;;6.45;;
66380;SDS011;53177;52.648;1.214;2022-09-20T18:18:55;12.30;;;5.27;;
66380;SDS011;53177;52.648;1.214;2022-09-20T18:21:22;12.60;;;5.13;;
66380;SDS011;53177;52.648;1.214;2022-09-20T18:23:49;11.75;;;5.55;;
66380;SDS011;53177;52.648;1.214;2022-09-20T18:26:19;11.45;;;5.43;;
66380;SDS011;53177;52.648;1.214;2022-09-20T18:31:15;13.43;;;5.75;;
66380;SDS011;53177;52.648;1.214;2022-09-20T18:33:41;14.00;;;5.70;;
66380;SDS011;53177;52.648;1.214;2022-09-20T18:36:07;11.47;;;5.30;;
66380;SDS011;53177;52.648;1.214;2022-09-20T18:38:32;12.23;;;4.90;;
66380;SDS011;53177;52.648;1.214;2022-09-20T18:40:58;13.00;;;5.88;;
66380;SDS011;53177;52.648;1.214;2022-09-20T18:43:28;13.47;;;5.67;;
66380;SDS011;53177;52.648;1.214;2022-09-20T18:45:55;11.70;;;5.57;;
66380;SDS011;53177;52.648;1.214;2022-09-20T18:48:21;12.40;;;5.65;;
66380;SDS011;53177;52.648;1.214;2022-09-20T18:53:26;10.98;;;5.65;;
66380;SDS011;53177;52.648;1.214;2022-09-20T18:55:53;12.37;;;5.70;;
66380;SDS011;53177;52.648;1.214;2022-09-20T18:58:20;10.52;;;4.88;;
66380;SDS011;53177;52.648;1.214;2022-09-20T19:00:53;13.35;;;5.50;;
66380;SDS011;53177;52.648;1.214;2022-09-20T19:03:43;11.38;;;5.25;;
66380;SDS011;53177;52.648;1.214;2022-09-20T19:06:18;10.32;;;5.10;;
66380;SDS011;53177;52.648;1.214;2022-09-20T19:08:49;10.27;;;5.00;;
66380;SDS011;53177;52.648;1.214;2022-09-20T19:11:26;10.15;;;5.18;;
66380;SDS011;53177;52.648;1.214;2022-09-20T19:13:58;11.02;;;5.38;;
66380;SDS011;53177;52.648;1.214;2022-09-20T19:16:32;11.30;;;5.80;;
66380;SDS011;53177;52.648;1.214;2022-09-20T19:27:04;12.55;;;6.38;;
66380;SDS011;53177;52.648;1.214;2022-09-20T19:29:30;11.73;;;6.60;;
66380;SDS011;53177;52.648;1.214;2022-09-20T19:31:56;11.43;;;6.30;;
66380;SDS011;53177;52.648;1.214;2022-09-20T19:34:24;13.38;;;6.55;;
66380;SDS011;53177;52.648;1.214;2022-09-20T19:45:14;12.60;;;6.55;;
66380;SDS011;53177;52.648;1.214;2022-09-20T19:50:30;15.50;;;7.70;;
66380;SDS011;53177;52.648;1.214;2022-09-20T19:53:00;17.17;;;8.77;;
66380;SDS011;53177;52.648;1.214;2022-09-20T19:55:29;16.58;;;8.80;;
66380;SDS011;53177;52.648;1.214;2022-09-20T19:57:55;28.58;;;15.30;;
66380;SDS011;53177;52.648;1.214;2022-09-20T20:00:22;22.55;;;11.48;;
66380;SDS011;53177;52.648;1.214;2022-09-20T20:02:48;23.60;;;13.23;;
66380;SDS011;53177;52.648;1.214;2022-09-20T20:05:17;40.80;;;20.60;;
66380;SDS011;53177;52.648;1.214;2022-09-20T20:07:47;53.10;;;28.65;;
66380;SDS011;53177;52.648;1.214;2022-09-20T20:21:58;37.85;;;20.02;;
66380;SDS011;53177;52.648;1.214;2022-09-20T20:24:36;36.67;;;19.17;;
66380;SDS011;53177;52.648;1.214;2022-09-20T20:27:10;35.88;;;20.25;;
66380;SDS011;53177;52.648;1.214;2022-09-20T20:29:36;50.20;;;26.70;;
66380;SDS011;53177;52.648;1.214;2022-09-20T20:32:01;47.23;;;24.43;;